createdAt,value
2023-04-27T00:00:29.960Z,100519.66
2023-04-27T00:02:57.551Z,100521.91
2023-04-27T00:05:25.101Z,100513.25
2023-04-27T00:07:52.034Z,100511.41
2023-04-27T00:10:19.451Z,100504.50
2023-04-27T00:12:48.873Z,100508.28
2023-04-27T00:15:16.714Z,100498.63
2023-04-27T00:17:44.485Z,100501.91
2023-04-27T00:20:12.804Z,100492.69
2023-04-27T00:22:40.370Z,100487.81
2023-04-27T00:25:14.916Z,100492.56
2023-04-27T00:27:42.383Z,100488.44
2023-04-27T00:30:12.484Z,100481.06
2023-04-27T00:32:39.386Z,100486.13
2023-04-27T00:35:07.867Z,100477.91
2023-04-27T00:37:35.353Z,100474.91
2023-04-27T00:40:05.297Z,100475.31
2023-04-27T00:42:33.028Z,100469.94
2023-04-27T00:45:00.438Z,100469.88
2023-04-27T00:47:30.656Z,100471.09
2023-04-27T00:49:58.154Z,100464.69
2023-04-27T00:52:26.696Z,100462.59
2023-04-27T00:54:54.205Z,100466.72
2023-04-27T00:57:21.396Z,100465.31
2023-04-27T00:59:48.903Z,100467.78
2023-04-27T01:02:16.790Z,100471.16
2023-04-27T01:04:46.041Z,100474.34
2023-04-27T01:07:13.367Z,100467.75
2023-04-27T01:09:42.555Z,100468.03
2023-04-27T01:12:10.132Z,100467.84
2023-04-27T01:14:37.588Z,100460.81
2023-04-27T01:17:04.890Z,100471.00
2023-04-27T01:19:32.542Z,100472.25
2023-04-27T01:22:02.251Z,100464.75
2023-04-27T01:24:31.262Z,100462.97
2023-04-27T01:26:58.915Z,100465.72
2023-04-27T01:29:26.593Z,100477.91
2023-04-27T01:31:54.163Z,100472.84
2023-04-27T01:34:21.500Z,100478.34
2023-04-27T01:36:49.183Z,100477.53
2023-04-27T01:39:16.766Z,100479.69
2023-04-27T01:41:46.155Z,100471.91
2023-04-27T01:44:13.620Z,100480.25
2023-04-27T01:46:40.917Z,100478.25
2023-04-27T01:49:08.297Z,100480.63
2023-04-27T01:51:35.951Z,100487.38
2023-04-27T01:54:03.374Z,100472.72
2023-04-27T01:56:30.969Z,100480.34
2023-04-27T01:59:00.345Z,100473.97
2023-04-27T02:01:28.003Z,100480.63
2023-04-27T02:03:55.896Z,100478.38
2023-04-27T02:06:23.844Z,100475.47
2023-04-27T02:08:51.157Z,100467.22
2023-04-27T02:11:19.357Z,100473.38
2023-04-27T02:13:47.696Z,100474.63
2023-04-27T02:16:16.763Z,100467.09
2023-04-27T02:18:43.997Z,100465.00
2023-04-27T02:21:11.407Z,100462.16
2023-04-27T02:23:38.814Z,100461.91
2023-04-27T02:26:06.336Z,100451.50
2023-04-27T02:28:33.152Z,100455.31
2023-04-27T02:31:00.981Z,100446.41
2023-04-27T02:33:29.679Z,100444.44
2023-04-27T02:35:57.164Z,100436.94
2023-04-27T02:38:24.643Z,100446.19
2023-04-27T02:40:54.419Z,100446.22
2023-04-27T02:43:21.961Z,100448.31
2023-04-27T02:45:49.357Z,100452.72
2023-04-27T02:48:16.949Z,100452.06
2023-04-27T02:50:46.825Z,100449.06
2023-04-27T02:53:14.063Z,100443.28
2023-04-27T02:55:47.151Z,100439.88
2023-04-27T02:58:15.177Z,100439.59
2023-04-27T03:00:43.152Z,100435.84
2023-04-27T03:03:11.112Z,100432.56
2023-04-27T03:05:38.557Z,100426.13
2023-04-27T03:08:07.125Z,100414.84
2023-04-27T03:10:34.867Z,100417.75
2023-04-27T03:13:02.380Z,100421.41
2023-04-27T03:15:30.221Z,100419.31
2023-04-27T03:17:58.165Z,100424.53
2023-04-27T03:20:25.984Z,100423.72
2023-04-27T03:22:53.927Z,100412.47
2023-04-27T03:25:24.660Z,100417.84
2023-04-27T03:27:52.150Z,100414.78
2023-04-27T03:30:20.139Z,100410.13
2023-04-27T03:32:48.279Z,100408.31
2023-04-27T03:35:15.774Z,100404.81
2023-04-27T03:37:43.617Z,100409.88
2023-04-27T03:40:12.956Z,100405.97
2023-04-27T03:42:41.996Z,100409.66
2023-04-27T03:45:09.978Z,100407.75
2023-04-27T03:47:37.716Z,100406.00
2023-04-27T03:50:05.450Z,100407.94
2023-04-27T03:52:33.057Z,100412.34
2023-04-27T03:55:00.424Z,100411.22
2023-04-27T03:57:27.637Z,100409.69
2023-04-27T03:59:57.808Z,100401.72
2023-04-27T04:02:25.655Z,100405.59
2023-04-27T04:04:53.087Z,100403.97
2023-04-27T04:07:22.012Z,100394.16
2023-04-27T04:09:49.621Z,100393.06
2023-04-27T04:12:17.313Z,100391.72
2023-04-27T04:14:45.605Z,100384.34
2023-04-27T04:17:13.896Z,100382.94
2023-04-27T04:19:41.500Z,100383.13
2023-04-27T04:22:08.650Z,100383.34
2023-04-27T04:24:36.258Z,100379.06
2023-04-27T04:27:03.929Z,100386.88
2023-04-27T04:29:31.885Z,100392.09
2023-04-27T04:31:59.380Z,100386.13
2023-04-27T04:34:28.922Z,100384.22
2023-04-27T04:36:56.384Z,100375.66
2023-04-27T04:39:24.342Z,100385.16
2023-04-27T04:41:51.928Z,100374.69
2023-04-27T04:44:19.823Z,100387.41
2023-04-27T04:46:46.998Z,100379.25
2023-04-27T04:49:14.005Z,100388.16
2023-04-27T04:51:45.142Z,100385.00
2023-04-27T04:54:11.969Z,100380.84
2023-04-27T04:56:39.396Z,100375.72
2023-04-27T04:59:06.902Z,100377.72
2023-04-27T05:01:34.432Z,100378.34
2023-04-27T05:04:02.436Z,100377.22
2023-04-27T05:06:30.984Z,100372.13
2023-04-27T05:09:00.141Z,100366.91
2023-04-27T05:11:27.486Z,100367.25
2023-04-27T05:13:54.461Z,100375.75
2023-04-27T05:16:21.654Z,100374.16
2023-04-27T05:18:49.219Z,100383.06
2023-04-27T05:21:17.354Z,100374.34
2023-04-27T05:23:44.649Z,100358.16
2023-04-27T05:26:13.728Z,100367.66
2023-04-27T05:28:41.135Z,100361.19
2023-04-27T05:31:09.391Z,100358.31
2023-04-27T05:33:36.815Z,100357.59
2023-04-27T05:36:04.625Z,100354.63
2023-04-27T05:38:33.787Z,100352.69
2023-04-27T05:41:01.598Z,100361.91
2023-04-27T05:43:31.669Z,100366.19
2023-04-27T05:46:00.131Z,100374.44
2023-04-27T05:48:27.889Z,100374.53
2023-04-27T05:50:59.986Z,100367.41
2023-04-27T05:53:27.807Z,100363.97
2023-04-27T05:55:55.556Z,100360.34
2023-04-27T05:58:23.633Z,100352.25
2023-04-27T06:00:53.686Z,100353.44
2023-04-27T06:03:21.580Z,100351.34
2023-04-27T06:05:55.742Z,100359.19
2023-04-27T06:08:24.410Z,100360.09
2023-04-27T06:10:52.308Z,100357.59
2023-04-27T06:13:20.062Z,100350.94
2023-04-27T06:15:47.820Z,100354.63
2023-04-27T06:18:16.725Z,100358.81
2023-04-27T06:20:44.258Z,100350.16
2023-04-27T06:23:11.757Z,100350.44
2023-04-27T06:25:39.340Z,100353.50
2023-04-27T06:28:06.954Z,100351.78
2023-04-27T06:30:34.182Z,100354.84
2023-04-27T06:33:00.953Z,100353.56
2023-04-27T06:35:29.721Z,100355.38
2023-04-27T06:37:57.530Z,100347.56
2023-04-27T06:40:27.524Z,100346.34
2023-04-27T06:42:55.045Z,100344.88
2023-04-27T06:45:22.297Z,100353.78
2023-04-27T06:47:51.653Z,100345.75
2023-04-27T06:50:19.583Z,100356.81
2023-04-27T06:52:49.046Z,100346.75
2023-04-27T06:55:16.257Z,100347.47
2023-04-27T06:57:44.097Z,100343.91
2023-04-27T07:00:13.825Z,100350.25
2023-04-27T07:02:41.899Z,100352.78
2023-04-27T07:05:10.295Z,100361.19
2023-04-27T07:07:38.229Z,100359.84
2023-04-27T07:10:09.743Z,100364.38
2023-04-27T07:12:37.863Z,100383.28
2023-04-27T07:15:05.353Z,100370.94
2023-04-27T07:17:33.493Z,100375.25
2023-04-27T07:20:02.453Z,100374.03
2023-04-27T07:22:30.165Z,100371.09
2023-04-27T07:24:58.117Z,100379.53
2023-04-27T07:27:27.535Z,100373.28
2023-04-27T07:29:56.199Z,100373.00
2023-04-27T07:32:23.837Z,100379.84
2023-04-27T07:34:54.077Z,100371.72
2023-04-27T07:37:22.778Z,100377.25
2023-04-27T07:39:54.475Z,100373.47
2023-04-27T07:42:22.714Z,100365.00
2023-04-27T07:44:54.246Z,100363.84
2023-04-27T07:47:21.301Z,100366.56
2023-04-27T07:49:48.655Z,100367.78
2023-04-27T07:52:16.585Z,100366.72
2023-04-27T07:54:43.703Z,100366.59
2023-04-27T07:57:13.799Z,100365.50
2023-04-27T07:59:41.034Z,100359.44
2023-04-27T08:02:19.027Z,100357.19
2023-04-27T08:04:47.690Z,100342.78
2023-04-27T08:07:15.977Z,100342.00
2023-04-27T08:09:43.531Z,100330.84
2023-04-27T08:12:10.653Z,100319.75
2023-04-27T08:14:38.294Z,100317.34
2023-04-27T08:17:07.695Z,100305.59
2023-04-27T08:19:36.378Z,100313.47
2023-04-27T08:22:04.447Z,100307.44
2023-04-27T08:24:32.793Z,100307.00
2023-04-27T08:27:00.309Z,100303.16
2023-04-27T08:29:28.860Z,100301.19
2023-04-27T08:32:00.816Z,100293.50
2023-04-27T08:34:28.457Z,100298.00
2023-04-27T08:36:58.826Z,100291.34
2023-04-27T08:39:26.750Z,100296.66
2023-04-27T08:41:54.024Z,100283.44
2023-04-27T08:44:21.539Z,100286.34
2023-04-27T08:46:49.189Z,100274.84
2023-04-27T08:49:17.399Z,100282.09
2023-04-27T08:51:45.904Z,100276.00
2023-04-27T08:54:14.496Z,100279.22
2023-04-27T08:56:41.255Z,100260.41
2023-04-27T08:59:15.403Z,100257.97
2023-04-27T09:01:45.169Z,100261.91
2023-04-27T09:04:12.110Z,100268.84
2023-04-27T09:06:39.256Z,100269.63
2023-04-27T09:09:07.918Z,100275.22
2023-04-27T09:11:38.625Z,100271.16
2023-04-27T09:14:17.314Z,100283.28
2023-04-27T09:16:44.943Z,100277.91
2023-04-27T09:19:13.518Z,100277.16
2023-04-27T09:21:40.875Z,100270.63
2023-04-27T09:24:12.528Z,100273.56
2023-04-27T09:26:43.050Z,100284.94
2023-04-27T09:29:12.481Z,100270.41
2023-04-27T09:31:42.671Z,100271.75
2023-04-27T09:34:09.872Z,100267.41
2023-04-27T09:36:38.861Z,100261.63
2023-04-27T09:39:07.493Z,100253.88
2023-04-27T09:41:36.732Z,100236.50
2023-04-27T09:44:07.584Z,100254.94
2023-04-27T09:46:35.680Z,100245.56
2023-04-27T09:49:05.449Z,100258.28
2023-04-27T09:51:34.520Z,100257.97
2023-04-27T09:54:05.438Z,100259.97
2023-04-27T09:56:48.897Z,100256.31
2023-04-27T09:59:38.361Z,100257.41
2023-04-27T10:02:20.883Z,100251.97
2023-04-27T10:05:24.793Z,100241.22
2023-04-27T10:07:53.875Z,100231.91
2023-04-27T10:10:21.816Z,100233.28
2023-04-27T10:13:02.478Z,100220.34
2023-04-27T10:15:31.794Z,100220.75
2023-04-27T10:18:05.262Z,100223.25
2023-04-27T10:20:36.337Z,100213.03
2023-04-27T10:23:05.355Z,100222.44
2023-04-27T10:25:38.807Z,100225.25
2023-04-27T10:28:06.127Z,100226.78
2023-04-27T10:30:37.264Z,100219.81
2023-04-27T10:33:06.824Z,100216.88
2023-04-27T10:35:36.656Z,100213.84
2023-04-27T10:38:08.048Z,100221.63
2023-04-27T10:40:36.441Z,100209.03
2023-04-27T10:43:10.888Z,100217.28
2023-04-27T10:45:40.273Z,100213.81
2023-04-27T10:48:09.672Z,100204.91
2023-04-27T10:50:36.961Z,100196.19
2023-04-27T10:53:05.398Z,100189.66
2023-04-27T10:55:33.340Z,100188.31
2023-04-27T10:58:02.265Z,100180.28
2023-04-27T11:00:30.777Z,100187.88
2023-04-27T11:03:11.771Z,100182.00
2023-04-27T11:05:38.952Z,100175.31
2023-04-27T11:08:06.706Z,100162.56
2023-04-27T11:10:34.059Z,100164.47
2023-04-27T11:13:07.465Z,100166.66
2023-04-27T11:15:44.511Z,100154.97
2023-04-27T11:18:12.912Z,100154.97
2023-04-27T11:20:40.678Z,100161.38
2023-04-27T11:23:08.134Z,100154.84
2023-04-27T11:25:36.713Z,100161.16
2023-04-27T11:28:04.037Z,100148.25
2023-04-27T11:30:31.344Z,100147.69
2023-04-27T11:32:59.258Z,100137.25
2023-04-27T11:35:34.718Z,100133.44
2023-04-27T11:38:01.830Z,100143.56
2023-04-27T11:40:32.496Z,100129.16
2023-04-27T11:43:01.228Z,100116.81
2023-04-27T11:45:28.044Z,100122.16
2023-04-27T11:47:55.555Z,100124.06
2023-04-27T11:50:27.005Z,100112.34
2023-04-27T11:53:01.212Z,100115.59
2023-04-27T11:55:29.001Z,100115.84
2023-04-27T11:57:59.706Z,100112.78
2023-04-27T12:00:28.136Z,100132.06
2023-04-27T12:02:55.163Z,100121.91
2023-04-27T12:05:22.763Z,100132.16
2023-04-27T12:07:50.982Z,100116.00
2023-04-27T12:10:21.477Z,100105.22
2023-04-27T12:12:49.253Z,100102.22
2023-04-27T12:15:17.366Z,100091.69
2023-04-27T12:17:50.935Z,100087.13
2023-04-27T12:20:18.449Z,100090.22
2023-04-27T12:22:45.897Z,100088.69
2023-04-27T12:25:13.274Z,100080.59
2023-04-27T12:27:41.698Z,100076.38
2023-04-27T12:30:09.811Z,100079.25
2023-04-27T12:32:36.645Z,100075.69
2023-04-27T12:35:04.884Z,100070.56
2023-04-27T12:37:32.581Z,100078.66
2023-04-27T12:40:00.337Z,100061.72
2023-04-27T12:42:28.453Z,100067.22
2023-04-27T12:44:57.355Z,100066.78
2023-04-27T12:47:45.955Z,100047.47
2023-04-27T12:50:12.412Z,100083.38
2023-04-27T12:52:39.265Z,100076.44
2023-04-27T12:55:15.235Z,100078.81
2023-04-27T12:57:45.466Z,100079.25
2023-04-27T13:00:16.258Z,100061.63
2023-04-27T13:02:43.260Z,100066.31
2023-04-27T13:05:10.984Z,100078.19
2023-04-27T13:07:38.829Z,100075.97
2023-04-27T13:10:06.419Z,100061.50
2023-04-27T13:12:34.894Z,100074.81
2023-04-27T13:15:02.461Z,100068.50
2023-04-27T13:17:32.078Z,100070.72
2023-04-27T13:19:59.514Z,100072.88
2023-04-27T13:22:27.362Z,100076.44
2023-04-27T13:24:55.262Z,100071.69
2023-04-27T13:27:22.599Z,100069.97
2023-04-27T13:29:50.341Z,100069.25
2023-04-27T13:32:17.585Z,100056.41
2023-04-27T13:34:46.999Z,100061.56
2023-04-27T13:37:21.136Z,100056.31
2023-04-27T13:39:49.029Z,100057.97
2023-04-27T13:42:16.217Z,100051.34
2023-04-27T13:44:43.012Z,100048.41
2023-04-27T13:47:09.992Z,100049.47
2023-04-27T13:49:37.737Z,100054.31
2023-04-27T13:52:06.540Z,100049.22
2023-04-27T13:54:34.241Z,100045.53
2023-04-27T13:57:01.111Z,100041.34
2023-04-27T13:59:28.164Z,100042.28
2023-04-27T14:01:57.761Z,100044.22
2023-04-27T14:04:25.284Z,100045.91
2023-04-27T14:06:52.790Z,100029.63
2023-04-27T14:09:21.478Z,100034.06
2023-04-27T14:11:56.459Z,100026.78
2023-04-27T14:14:24.316Z,100026.97
2023-04-27T14:16:51.549Z,100027.56
2023-04-27T14:19:18.452Z,100020.47
2023-04-27T14:21:45.581Z,100018.28
2023-04-27T14:24:12.368Z,100027.31
2023-04-27T14:26:40.790Z,100042.44
2023-04-27T14:29:07.815Z,100036.56
2023-04-27T14:31:34.856Z,100027.34
2023-04-27T14:34:01.978Z,100019.16
2023-04-27T14:36:28.765Z,100017.50
2023-04-27T14:38:55.688Z,100018.38
2023-04-27T14:41:22.685Z,100018.94
2023-04-27T14:43:51.050Z,100021.25
2023-04-27T14:46:20.934Z,100012.25
2023-04-27T14:48:48.625Z,100015.19
2023-04-27T14:51:16.054Z,99993.97
2023-04-27T14:53:43.821Z,99991.66
2023-04-27T14:56:11.085Z,99986.47
2023-04-27T14:58:37.989Z,99984.13
2023-04-27T15:01:07.804Z,99980.75
2023-04-27T15:03:35.274Z,99978.69
2023-04-27T15:06:02.686Z,99978.47
2023-04-27T15:08:32.018Z,99982.19
2023-04-27T15:11:00.658Z,99973.63
2023-04-27T15:13:28.174Z,99977.41
2023-04-27T15:15:55.306Z,99961.44
2023-04-27T15:18:26.083Z,99955.16
2023-04-27T15:20:54.229Z,99952.22
2023-04-27T15:23:21.616Z,99949.91
2023-04-27T15:25:50.008Z,99946.50
2023-04-27T15:28:18.935Z,99945.16
2023-04-27T15:30:46.552Z,99949.25
2023-04-27T15:33:15.046Z,99956.47
2023-04-27T15:35:43.711Z,99949.69
2023-04-27T15:38:13.431Z,99949.41
2023-04-27T15:40:41.392Z,99958.47
2023-04-27T15:43:08.813Z,99947.63
2023-04-27T15:45:36.281Z,99950.81
2023-04-27T15:48:03.474Z,99951.66
2023-04-27T15:50:30.721Z,99961.34
2023-04-27T15:52:59.854Z,99960.66
2023-04-27T15:55:27.425Z,99959.91
2023-04-27T15:57:54.433Z,99948.03
2023-04-27T16:00:22.602Z,99958.63
2023-04-27T16:02:49.813Z,99954.00
2023-04-27T16:05:16.940Z,99944.69
2023-04-27T16:07:44.656Z,99945.50
2023-04-27T16:10:14.022Z,99945.13
2023-04-27T16:12:41.121Z,99931.69
2023-04-27T16:15:10.876Z,99938.53
2023-04-27T16:17:39.028Z,99939.69
2023-04-27T16:20:08.003Z,99938.72
2023-04-27T16:22:35.612Z,99937.97
2023-04-27T16:25:02.843Z,99926.59
2023-04-27T16:27:31.671Z,99924.69
2023-04-27T16:29:59.242Z,99920.19
2023-04-27T16:32:26.221Z,99919.91
2023-04-27T16:34:53.197Z,99903.47
2023-04-27T16:37:21.506Z,99912.38
2023-04-27T16:39:48.653Z,99898.81
2023-04-27T16:42:16.207Z,99893.03
2023-04-27T16:44:44.538Z,99896.22
2023-04-27T16:47:11.321Z,99885.50
2023-04-27T16:49:38.101Z,99879.16
2023-04-27T16:52:05.164Z,99873.97
2023-04-27T16:54:31.993Z,99859.78
2023-04-27T16:56:58.872Z,99854.19
2023-04-27T16:59:25.518Z,99862.00
2023-04-27T17:01:54.052Z,99857.50
2023-04-27T17:04:21.027Z,99848.88
2023-04-27T17:06:47.916Z,99858.56
2023-04-27T17:09:14.845Z,99850.41
2023-04-27T17:11:42.023Z,99857.19
2023-04-27T17:14:09.945Z,99847.91
2023-04-27T17:16:36.714Z,99842.28
2023-04-27T17:19:05.065Z,99847.16
2023-04-27T17:21:31.827Z,99840.03
2023-04-27T17:23:58.749Z,99838.09
2023-04-27T17:26:25.815Z,99838.84
2023-04-27T17:28:54.747Z,99826.97
2023-04-27T17:31:21.728Z,99828.00
2023-04-27T17:33:49.593Z,99825.28
2023-04-27T17:36:19.154Z,99822.53
2023-04-27T17:38:46.196Z,99821.34
2023-04-27T17:41:13.275Z,99821.28
2023-04-27T17:43:40.291Z,99807.41
2023-04-27T17:46:07.967Z,99802.72
2023-04-27T17:48:37.816Z,99809.44
2023-04-27T17:51:06.006Z,99809.06
2023-04-27T17:53:36.633Z,99804.97
2023-04-27T17:56:10.899Z,99797.94
2023-04-27T17:58:38.636Z,99804.53
2023-04-27T18:01:07.622Z,99793.75
2023-04-27T18:03:34.557Z,99798.84
2023-04-27T18:06:02.574Z,99794.53
2023-04-27T18:08:30.642Z,99793.75
2023-04-27T18:10:59.651Z,99791.09
2023-04-27T18:13:27.035Z,99786.63
2023-04-27T18:15:54.705Z,99789.25
2023-04-27T18:18:24.687Z,99782.63
2023-04-27T18:20:53.538Z,99770.53
2023-04-27T18:23:22.608Z,99770.00
2023-04-27T18:25:50.066Z,99774.50
2023-04-27T18:28:18.683Z,99776.22
2023-04-27T18:30:47.650Z,99777.69
2023-04-27T18:33:15.085Z,99774.63
2023-04-27T18:35:42.789Z,99766.97
2023-04-27T18:38:09.693Z,99763.59
2023-04-27T18:40:37.202Z,99767.84
2023-04-27T18:43:03.941Z,99763.56
2023-04-27T18:45:32.842Z,99761.75
2023-04-27T18:48:00.624Z,99757.72
2023-04-27T18:50:27.412Z,99766.09
2023-04-27T18:52:54.294Z,99758.97
2023-04-27T18:55:21.639Z,99748.50
2023-04-27T18:57:49.313Z,99754.03
2023-04-27T19:00:17.762Z,99748.47
2023-04-27T19:02:46.725Z,99744.94
2023-04-27T19:05:13.945Z,99733.03
2023-04-27T19:07:42.099Z,99743.66
2023-04-27T19:10:11.476Z,99747.03
2023-04-27T19:12:38.690Z,99739.03
2023-04-27T19:15:06.422Z,99735.84
2023-04-27T19:17:33.878Z,99731.66
2023-04-27T19:20:03.299Z,99721.47
2023-04-27T19:22:30.855Z,99725.75
2023-04-27T19:24:57.964Z,99732.91
2023-04-27T19:27:25.885Z,99723.16
2023-04-27T19:29:54.706Z,99720.97
2023-04-27T19:32:23.405Z,99728.00
2023-04-27T19:34:50.225Z,99728.84
2023-04-27T19:37:20.519Z,99720.41
2023-04-27T19:39:48.936Z,99717.94
2023-04-27T19:42:15.782Z,99722.91
2023-04-27T19:44:47.054Z,99720.66
2023-04-27T19:47:14.461Z,99720.94
2023-04-27T19:49:42.299Z,99715.38
2023-04-27T19:52:10.164Z,99715.81
2023-04-27T19:54:38.472Z,99720.47
2023-04-27T19:57:06.617Z,99709.16
2023-04-27T19:59:33.505Z,99714.72
2023-04-27T20:02:01.766Z,99711.03
2023-04-27T20:04:29.737Z,99709.63
2023-04-27T20:06:56.770Z,99697.81
2023-04-27T20:09:24.582Z,99704.38
2023-04-27T20:11:53.550Z,99702.06
2023-04-27T20:14:20.963Z,99701.63
2023-04-27T20:16:51.570Z,99700.34
2023-04-27T20:19:18.421Z,99704.59
2023-04-27T20:21:47.407Z,99697.84
2023-04-27T20:24:15.737Z,99692.41
2023-04-27T20:26:43.451Z,99688.00
2023-04-27T20:29:13.660Z,99677.75
2023-04-27T20:31:41.238Z,99681.94
2023-04-27T20:34:09.219Z,99677.28
2023-04-27T20:36:36.446Z,99669.59
2023-04-27T20:39:04.219Z,99671.47
2023-04-27T20:41:32.265Z,99665.63
2023-04-27T20:43:59.866Z,99661.97
2023-04-27T20:46:28.809Z,99655.13
2023-04-27T20:48:56.547Z,99680.00
2023-04-27T20:51:23.410Z,99679.34
2023-04-27T20:53:50.364Z,99685.72
2023-04-27T20:56:18.303Z,99676.50
2023-04-27T20:58:46.001Z,99676.09
2023-04-27T21:01:13.675Z,99670.00
2023-04-27T21:03:42.122Z,99665.53
2023-04-27T21:06:09.600Z,99664.13
2023-04-27T21:08:38.058Z,99665.19
2023-04-27T21:11:06.199Z,99659.50
2023-04-27T21:13:33.594Z,99662.88
2023-04-27T21:16:01.434Z,99660.16
2023-04-27T21:18:30.596Z,99673.78
2023-04-27T21:21:00.597Z,99668.31
2023-04-27T21:23:27.744Z,99656.81
2023-04-27T21:25:55.435Z,99654.25
2023-04-27T21:28:23.402Z,99653.25
2023-04-27T21:30:50.699Z,99646.53
2023-04-27T21:33:18.307Z,99637.28
2023-04-27T21:35:45.583Z,99640.44
2023-04-27T21:38:19.822Z,99638.50
2023-04-27T21:40:47.417Z,99630.56
2023-04-27T21:43:15.011Z,99626.19
2023-04-27T21:45:41.842Z,99627.25
2023-04-27T21:48:09.550Z,99632.44
2023-04-27T21:50:37.036Z,99625.56
2023-04-27T21:53:04.713Z,99614.69
2023-04-27T21:55:34.320Z,99607.16
2023-04-27T21:58:01.923Z,99607.09
2023-04-27T22:00:29.118Z,99598.75
2023-04-27T22:02:56.499Z,99586.69
2023-04-27T22:05:24.168Z,99589.31
2023-04-27T22:07:51.456Z,99574.00
2023-04-27T22:10:19.189Z,99589.53
2023-04-27T22:12:48.661Z,99590.53
2023-04-27T22:15:16.194Z,99590.72
2023-04-27T22:17:43.985Z,99587.44
2023-04-27T22:20:12.513Z,99589.94
2023-04-27T22:22:40.805Z,99581.34
2023-04-27T22:25:09.276Z,99592.41
2023-04-27T22:27:44.615Z,99579.91
2023-04-27T22:30:16.362Z,99578.81
2023-04-27T22:32:43.707Z,99587.84
2023-04-27T22:35:18.700Z,99572.94
2023-04-27T22:37:52.742Z,99567.94
2023-04-27T22:40:20.175Z,99564.59
2023-04-27T22:42:47.733Z,99567.06
2023-04-27T22:45:17.052Z,99561.22
2023-04-27T22:47:45.227Z,99568.03
2023-04-27T22:50:12.876Z,99560.59
2023-04-27T22:52:41.203Z,99559.56
2023-04-27T22:55:09.977Z,99557.28
2023-04-27T22:57:38.368Z,99562.84
2023-04-27T23:00:07.531Z,99558.66
2023-04-27T23:02:37.067Z,99556.34
2023-04-27T23:05:05.225Z,99555.94
2023-04-27T23:07:32.908Z,99548.84
2023-04-27T23:10:00.497Z,99550.34
2023-04-27T23:12:28.102Z,99559.44
2023-04-27T23:14:55.983Z,99559.28
2023-04-27T23:17:23.362Z,99546.59
2023-04-27T23:19:52.403Z,99553.63
2023-04-27T23:22:19.760Z,99546.78
2023-04-27T23:24:47.417Z,99546.97
2023-04-27T23:27:15.326Z,99548.78
2023-04-27T23:29:42.898Z,99535.31
2023-04-27T23:32:10.395Z,99537.09
2023-04-27T23:34:38.066Z,99536.63
2023-04-27T23:37:07.105Z,99532.06
2023-04-27T23:39:34.604Z,99527.47
2023-04-27T23:42:02.017Z,99535.66
2023-04-27T23:44:29.250Z,99535.72
2023-04-27T23:46:56.661Z,99528.66
2023-04-27T23:49:24.090Z,99534.31
2023-04-27T23:51:53.535Z,99533.47
2023-04-27T23:54:23.361Z,99540.47
2023-04-27T23:56:51.435Z,99529.31
2023-04-27T23:59:18.684Z,99532.31
